createdAt,value
2023-05-12T05:32:56.246Z,31.48
2023-05-12T05:35:58.454Z,31.40
2023-05-12T05:39:00.119Z,23.83
2023-05-12T05:42:02.040Z,28.15
2023-05-12T05:45:03.968Z,21.70
2023-05-12T05:48:05.880Z,23.77
2023-05-12T05:51:07.671Z,24.63
2023-05-12T05:54:09.456Z,22.38
2023-05-12T05:57:11.256Z,24.63
2023-05-12T06:00:14.341Z,19.33
2023-05-12T06:03:16.501Z,23.10
2023-05-12T06:06:18.781Z,21.80
2023-05-12T06:09:21.079Z,20.20
2023-05-12T06:12:23.104Z,19.90
2023-05-12T06:49:57.263Z,17.42
2023-05-12T06:52:59.421Z,15.70
2023-05-12T06:56:01.386Z,13.80
2023-05-12T06:59:04.288Z,12.30
2023-05-12T07:02:06.615Z,13.73
2023-05-12T07:05:08.790Z,12.52
2023-05-12T07:08:10.574Z,12.00
2023-05-12T07:11:13.000Z,13.52
2023-05-12T07:14:14.821Z,10.30
2023-05-12T07:17:16.528Z,10.13
2023-05-12T07:20:18.187Z,9.25
2023-05-12T07:23:20.690Z,11.10
2023-05-12T07:26:24.161Z,8.05
2023-05-12T07:29:26.096Z,8.95
2023-05-12T07:32:28.177Z,10.93
2023-05-12T07:35:31.110Z,10.80
2023-05-12T07:38:32.883Z,8.95
2023-05-12T07:41:34.698Z,9.50
2023-05-12T07:44:36.675Z,9.68
2023-05-12T07:47:38.792Z,11.07
2023-05-12T07:50:40.564Z,13.80
2023-05-12T07:53:42.502Z,8.18
2023-05-12T07:56:44.139Z,11.30
2023-05-12T07:59:46.265Z,13.43
2023-05-12T08:02:48.647Z,10.38
2023-05-12T08:05:50.777Z,10.82
2023-05-12T08:08:52.654Z,8.32
2023-05-12T08:11:54.578Z,8.10
2023-05-12T08:14:56.486Z,5.95
2023-05-12T08:17:58.463Z,6.93
2023-05-12T08:21:00.591Z,6.10
2023-05-12T08:24:02.637Z,5.43
2023-05-12T08:27:04.517Z,6.75
2023-05-12T08:30:06.848Z,5.25
2023-05-12T08:33:08.746Z,4.43
2023-05-12T08:36:11.199Z,4.65
2023-05-12T08:39:13.297Z,3.72
2023-05-12T08:42:30.406Z,3.65
2023-05-12T08:45:32.370Z,6.38
2023-05-12T08:48:35.599Z,5.57
2023-05-12T08:51:40.721Z,2.70
2023-05-12T08:58:00.188Z,2.55
2023-05-12T09:01:05.464Z,3.78
2023-05-12T09:04:08.091Z,1.92
2023-05-12T09:07:11.244Z,1.95
2023-05-12T09:10:32.852Z,1.73
2023-05-12T09:13:40.381Z,1.88
2023-05-12T09:16:45.861Z,2.88
2023-05-12T09:19:47.573Z,2.25
2023-05-12T09:22:49.621Z,5.60
2023-05-12T09:26:01.499Z,3.85
2023-05-12T09:29:08.469Z,4.20
2023-05-12T09:32:10.641Z,5.93
2023-05-12T09:35:13.524Z,5.32
2023-05-12T09:38:15.344Z,5.70
2023-05-12T09:41:23.434Z,4.60
2023-05-12T09:44:26.027Z,6.80
2023-05-12T09:47:29.409Z,3.58
2023-05-12T09:50:40.798Z,7.00
2023-05-12T09:53:48.486Z,2.55
2023-05-12T09:56:51.204Z,3.78
2023-05-12T09:59:54.448Z,7.82
2023-05-12T10:02:56.304Z,4.10
2023-05-12T10:06:01.619Z,4.95
2023-05-12T10:09:15.571Z,4.80
2023-05-12T10:12:17.480Z,5.85
2023-05-12T10:15:21.228Z,7.47
2023-05-12T10:18:24.681Z,4.22
2023-05-12T10:21:26.723Z,5.38
2023-05-12T10:24:28.767Z,9.02
2023-05-12T10:27:33.345Z,5.65
2023-05-12T10:30:37.150Z,5.55
2023-05-12T10:33:39.190Z,4.47
2023-05-12T10:36:47.685Z,5.50
2023-05-12T10:39:52.949Z,6.25
2023-05-12T10:42:59.739Z,4.13
2023-05-12T10:46:08.907Z,5.25
2023-05-12T10:49:13.031Z,6.57
2023-05-12T10:52:20.139Z,6.68
2023-05-12T10:55:36.749Z,6.03
2023-05-12T10:58:38.920Z,4.90
2023-05-12T11:01:42.266Z,4.28
2023-05-12T11:04:58.145Z,3.50
2023-05-12T11:08:00.690Z,8.30
2023-05-12T11:11:03.204Z,4.47
2023-05-12T11:14:05.490Z,3.17
2023-05-12T11:17:08.002Z,5.25
2023-05-12T11:20:10.164Z,3.80
2023-05-12T11:23:11.890Z,4.30
2023-05-12T11:26:19.556Z,2.80
2023-05-12T11:29:21.950Z,3.38
2023-05-12T11:32:23.805Z,2.97
2023-05-12T11:35:30.833Z,4.60
2023-05-12T11:38:32.580Z,2.45
2023-05-12T11:41:34.297Z,3.53
2023-05-12T11:44:37.088Z,7.70
2023-05-12T11:47:38.722Z,2.75
2023-05-12T11:50:43.609Z,5.15
2023-05-12T11:53:46.487Z,3.15
2023-05-12T11:56:53.615Z,7.10
2023-05-12T12:00:09.674Z,3.22
2023-05-12T12:03:14.152Z,3.65
2023-05-12T12:06:16.464Z,4.40
2023-05-12T12:09:18.236Z,3.53
2023-05-12T12:12:19.858Z,4.55
2023-05-12T12:15:21.783Z,2.65
2023-05-12T12:18:24.059Z,11.73
2023-05-12T12:21:25.848Z,3.85
2023-05-12T12:24:27.701Z,5.20
2023-05-12T12:27:29.524Z,3.33
2023-05-12T12:30:31.988Z,4.40
2023-05-12T12:33:33.643Z,3.97
2023-05-12T12:36:35.667Z,6.53
2023-05-12T12:39:37.425Z,4.18
2023-05-12T12:42:41.171Z,5.45
2023-05-12T12:45:42.874Z,7.68
2023-05-12T12:48:44.628Z,4.43
2023-05-12T12:51:47.214Z,3.63
2023-05-12T12:54:49.188Z,1.25
2023-05-12T12:57:50.882Z,1.58
2023-05-12T13:00:52.598Z,2.17
2023-05-12T13:03:54.286Z,2.97
2023-05-12T13:06:56.192Z,2.13
2023-05-12T13:09:58.627Z,5.07
2023-05-12T13:13:00.769Z,2.17
2023-05-12T13:16:02.455Z,2.13
2023-05-12T13:19:04.334Z,3.78
2023-05-12T13:22:06.321Z,3.35
2023-05-12T13:25:08.450Z,7.60
2023-05-12T13:28:10.223Z,3.25
2023-05-12T13:31:12.190Z,1.80
2023-05-12T13:34:14.766Z,5.20
2023-05-12T13:37:16.514Z,3.65
2023-05-12T13:40:18.514Z,3.03
2023-05-12T13:43:20.599Z,2.25
2023-05-12T13:46:22.815Z,5.13
2023-05-12T13:49:24.596Z,7.25
2023-05-12T13:52:26.235Z,4.75
2023-05-12T13:55:27.860Z,6.18
2023-05-12T13:58:29.565Z,10.32
2023-05-12T14:01:31.942Z,7.53
2023-05-12T14:04:33.865Z,8.73
2023-05-12T14:07:35.511Z,7.63
2023-05-12T14:10:37.329Z,16.75
2023-05-12T14:13:39.084Z,7.03
2023-05-12T14:16:41.013Z,6.22
2023-05-12T14:19:42.902Z,7.50
2023-05-12T14:22:44.534Z,7.10
2023-05-12T14:25:46.175Z,7.82
2023-05-12T14:28:48.073Z,8.95
2023-05-12T14:31:49.782Z,5.72
2023-05-12T14:34:51.420Z,13.07
2023-05-12T14:37:53.698Z,8.73
2023-05-12T14:40:55.433Z,9.40
2023-05-12T14:43:57.990Z,6.90
2023-05-12T14:46:59.780Z,7.55
2023-05-12T14:50:01.385Z,8.98
2023-05-12T14:53:03.132Z,7.28
2023-05-12T14:56:05.108Z,8.88
2023-05-12T14:59:06.709Z,8.35
2023-05-12T15:02:09.004Z,10.38
2023-05-12T15:05:13.381Z,9.00
2023-05-12T15:08:17.194Z,8.82
2023-05-12T15:11:18.783Z,5.90
2023-05-12T15:14:20.490Z,6.65
2023-05-12T15:17:22.644Z,10.13
2023-05-12T15:20:24.570Z,7.40
2023-05-12T15:23:26.193Z,11.52
2023-05-12T15:26:33.548Z,9.35
2023-05-12T15:29:40.668Z,8.85
2023-05-12T15:32:42.691Z,9.88
2023-05-12T15:35:44.332Z,7.10
2023-05-12T15:38:47.213Z,7.55
2023-05-12T15:41:50.347Z,11.45
2023-05-12T15:44:52.626Z,10.27
2023-05-12T15:47:54.423Z,10.02
2023-05-12T15:50:56.555Z,7.75
2023-05-12T15:53:58.139Z,4.97
2023-05-12T15:56:59.749Z,7.75
2023-05-12T16:00:02.302Z,7.13
